sensor_id;sensor_type;location;lat;lon;timestamp;temperature;humidity
14517;DHT22;7344;50.864;4.362;2023-01-05T00:01:05;11.30;99.90
14517;DHT22;7344;50.864;4.362;2023-01-05T00:03:32;11.30;99.90
14517;DHT22;7344;50.864;4.362;2023-01-05T00:05:59;11.30;99.90
14517;DHT22;7344;50.864;4.362;2023-01-05T00:08:25;11.30;99.90
14517;DHT22;7344;50.864;4.362;2023-01-05T00:10:50;11.30;99.90
14517;DHT22;7344;50.864;4.362;2023-01-05T00:13:34;11.30;99.90
14517;DHT22;7344;50.864;4.362;2023-01-05T00:16:18;11.30;99.90
14517;DHT22;7344;50.864;4.362;2023-01-05T00:19:02;11.30;99.90
14517;DHT22;7344;50.864;4.362;2023-01-05T00:21:46;11.30;99.90
14517;DHT22;7344;50.864;4.362;2023-01-05T00:24:30;11.40;99.90
14517;DHT22;7344;50.864;4.362;2023-01-05T00:26:56;11.40;99.90
14517;DHT22;7344;50.864;4.362;2023-01-05T00:29:22;11.40;99.90
14517;DHT22;7344;50.864;4.362;2023-01-05T00:31:47;11.50;99.90
14517;DHT22;7344;50.864;4.362;2023-01-05T00:34:13;11.50;99.90
14517;DHT22;7344;50.864;4.362;2023-01-05T00:36:39;11.50;99.90
14517;DHT22;7344;50.864;4.362;2023-01-05T00:39:05;11.50;99.90
14517;DHT22;7344;50.864;4.362;2023-01-05T00:41:31;11.40;99.90
14517;DHT22;7344;50.864;4.362;2023-01-05T00:43:56;11.40;99.90
14517;DHT22;7344;50.864;4.362;2023-01-05T00:46:22;11.40;99.90
14517;DHT22;7344;50.864;4.362;2023-01-05T00:48:47;11.40;99.90
14517;DHT22;7344;50.864;4.362;2023-01-05T00:51:13;11.40;99.90
14517;DHT22;7344;50.864;4.362;2023-01-05T00:53:39;11.40;99.90
14517;DHT22;7344;50.864;4.362;2023-01-05T00:56:04;11.40;99.90
14517;DHT22;7344;50.864;4.362;2023-01-05T00:58:30;11.40;99.90
14517;DHT22;7344;50.864;4.362;2023-01-05T01:00:55;11.40;99.90
14517;DHT22;7344;50.864;4.362;2023-01-05T01:03:21;11.50;99.90
14517;DHT22;7344;50.864;4.362;2023-01-05T01:05:55;11.50;99.90
14517;DHT22;7344;50.864;4.362;2023-01-05T01:08:21;11.50;99.90
14517;DHT22;7344;50.864;4.362;2023-01-05T01:10:47;11.40;99.90
14517;DHT22;7344;50.864;4.362;2023-01-05T01:13:12;11.50;99.90
14517;DHT22;7344;50.864;4.362;2023-01-05T01:15:38;11.40;99.90
14517;DHT22;7344;50.864;4.362;2023-01-05T01:18:03;11.40;99.90
14517;DHT22;7344;50.864;4.362;2023-01-05T01:20:29;11.30;99.90
14517;DHT22;7344;50.864;4.362;2023-01-05T01:22:55;11.20;99.90
14517;DHT22;7344;50.864;4.362;2023-01-05T01:25:21;11.30;99.90
14517;DHT22;7344;50.864;4.362;2023-01-05T01:27:47;11.20;99.90
14517;DHT22;7344;50.864;4.362;2023-01-05T01:30:13;11.20;99.90
14517;DHT22;7344;50.864;4.362;2023-01-05T01:32:38;11.10;99.90
14517;DHT22;7344;50.864;4.362;2023-01-05T01:35:04;11.10;99.90
14517;DHT22;7344;50.864;4.362;2023-01-05T01:37:30;11.10;99.90
14517;DHT22;7344;50.864;4.362;2023-01-05T01:39:55;11.20;99.90
14517;DHT22;7344;50.864;4.362;2023-01-05T01:42:21;11.20;99.90
14517;DHT22;7344;50.864;4.362;2023-01-05T01:49:50;11.40;99.90
14517;DHT22;7344;50.864;4.362;2023-01-05T01:52:16;11.40;99.90
14517;DHT22;7344;50.864;4.362;2023-01-05T01:54:42;11.50;99.90
14517;DHT22;7344;50.864;4.362;2023-01-05T01:57:11;11.50;99.90
14517;DHT22;7344;50.864;4.362;2023-01-05T01:59:37;11.40;99.90
14517;DHT22;7344;50.864;4.362;2023-01-05T02:02:03;11.50;99.90
14517;DHT22;7344;50.864;4.362;2023-01-05T02:04:31;11.50;99.90
14517;DHT22;7344;50.864;4.362;2023-01-05T02:06:58;11.50;99.90
14517;DHT22;7344;50.864;4.362;2023-01-05T02:09:24;11.50;99.90
14517;DHT22;7344;50.864;4.362;2023-01-05T02:14:25;11.60;99.90
14517;DHT22;7344;50.864;4.362;2023-01-05T02:20:41;11.60;99.90
14517;DHT22;7344;50.864;4.362;2023-01-05T02:25:50;11.60;99.90
14517;DHT22;7344;50.864;4.362;2023-01-05T02:30:59;11.60;99.90
14517;DHT22;7344;50.864;4.362;2023-01-05T02:39:31;11.70;99.90
14517;DHT22;7344;50.864;4.362;2023-01-05T02:42:12;11.60;99.90
14517;DHT22;7344;50.864;4.362;2023-01-05T02:44:39;11.50;99.90
14517;DHT22;7344;50.864;4.362;2023-01-05T02:49:58;11.50;99.90
14517;DHT22;7344;50.864;4.362;2023-01-05T02:52:26;11.40;99.90
14517;DHT22;7344;50.864;4.362;2023-01-05T02:54:55;11.40;99.90
14517;DHT22;7344;50.864;4.362;2023-01-05T02:57:34;11.40;99.90
14517;DHT22;7344;50.864;4.362;2023-01-05T03:00:15;11.40;99.90
14517;DHT22;7344;50.864;4.362;2023-01-05T03:02:42;11.40;99.90
14517;DHT22;7344;50.864;4.362;2023-01-05T03:05:13;11.40;99.90
14517;DHT22;7344;50.864;4.362;2023-01-05T03:07:42;11.60;99.90
14517;DHT22;7344;50.864;4.362;2023-01-05T03:10:11;11.60;99.90
14517;DHT22;7344;50.864;4.362;2023-01-05T03:13:00;11.70;99.90
14517;DHT22;7344;50.864;4.362;2023-01-05T03:15:45;11.60;99.90
14517;DHT22;7344;50.864;4.362;2023-01-05T03:18:18;11.60;99.90
14517;DHT22;7344;50.864;4.362;2023-01-05T03:20:48;11.60;99.90
14517;DHT22;7344;50.864;4.362;2023-01-05T03:23:16;11.60;99.90
14517;DHT22;7344;50.864;4.362;2023-01-05T03:26:01;11.60;99.90
14517;DHT22;7344;50.864;4.362;2023-01-05T03:28:57;11.70;99.90
14517;DHT22;7344;50.864;4.362;2023-01-05T03:32:16;11.60;99.90
14517;DHT22;7344;50.864;4.362;2023-01-05T03:35:04;11.60;99.90
14517;DHT22;7344;50.864;4.362;2023-01-05T03:38:11;11.60;99.90
14517;DHT22;7344;50.864;4.362;2023-01-05T03:40:39;11.70;99.90
14517;DHT22;7344;50.864;4.362;2023-01-05T03:43:06;11.70;99.90
14517;DHT22;7344;50.864;4.362;2023-01-05T03:45:53;11.60;99.90
14517;DHT22;7344;50.864;4.362;2023-01-05T03:48:19;11.60;99.90
14517;DHT22;7344;50.864;4.362;2023-01-05T03:50:46;11.60;99.90
14517;DHT22;7344;50.864;4.362;2023-01-05T03:53:12;11.70;99.90
14517;DHT22;7344;50.864;4.362;2023-01-05T03:55:38;11.70;99.90
14517;DHT22;7344;50.864;4.362;2023-01-05T03:58:03;11.70;99.90
14517;DHT22;7344;50.864;4.362;2023-01-05T04:00:29;11.70;99.90
14517;DHT22;7344;50.864;4.362;2023-01-05T04:02:54;11.70;99.90
14517;DHT22;7344;50.864;4.362;2023-01-05T04:05:20;11.60;99.90
14517;DHT22;7344;50.864;4.362;2023-01-05T04:07:46;11.70;99.90
14517;DHT22;7344;50.864;4.362;2023-01-05T04:10:11;11.60;99.90
14517;DHT22;7344;50.864;4.362;2023-01-05T04:12:37;11.60;99.90
14517;DHT22;7344;50.864;4.362;2023-01-05T04:15:04;11.70;99.90
14517;DHT22;7344;50.864;4.362;2023-01-05T04:17:30;11.60;99.90
14517;DHT22;7344;50.864;4.362;2023-01-05T04:19:55;11.60;99.90
14517;DHT22;7344;50.864;4.362;2023-01-05T04:22:21;11.60;99.90
14517;DHT22;7344;50.864;4.362;2023-01-05T04:24:46;11.60;99.90
14517;DHT22;7344;50.864;4.362;2023-01-05T04:27:12;11.60;99.90
14517;DHT22;7344;50.864;4.362;2023-01-05T04:29:38;11.60;99.90
14517;DHT22;7344;50.864;4.362;2023-01-05T04:32:03;11.60;99.90
14517;DHT22;7344;50.864;4.362;2023-01-05T04:34:29;11.60;99.90
14517;DHT22;7344;50.864;4.362;2023-01-05T04:36:55;11.70;99.90
14517;DHT22;7344;50.864;4.362;2023-01-05T04:39:20;11.70;99.90
14517;DHT22;7344;50.864;4.362;2023-01-05T04:41:46;11.70;99.90
14517;DHT22;7344;50.864;4.362;2023-01-05T04:44:13;11.60;99.90
14517;DHT22;7344;50.864;4.362;2023-01-05T04:46:39;11.60;99.90
14517;DHT22;7344;50.864;4.362;2023-01-05T04:49:04;11.60;99.90
14517;DHT22;7344;50.864;4.362;2023-01-05T04:51:30;11.60;99.90
14517;DHT22;7344;50.864;4.362;2023-01-05T04:53:55;11.60;99.90
14517;DHT22;7344;50.864;4.362;2023-01-05T04:56:21;11.50;99.90
14517;DHT22;7344;50.864;4.362;2023-01-05T04:58:47;11.50;99.90
14517;DHT22;7344;50.864;4.362;2023-01-05T05:01:12;11.50;99.90
14517;DHT22;7344;50.864;4.362;2023-01-05T05:03:38;11.50;99.90
14517;DHT22;7344;50.864;4.362;2023-01-05T05:06:04;11.50;99.90
14517;DHT22;7344;50.864;4.362;2023-01-05T05:08:29;11.60;99.90
14517;DHT22;7344;50.864;4.362;2023-01-05T05:10:55;11.50;99.90
14517;DHT22;7344;50.864;4.362;2023-01-05T05:13:21;11.50;99.90
14517;DHT22;7344;50.864;4.362;2023-01-05T05:15:46;11.50;99.90
14517;DHT22;7344;50.864;4.362;2023-01-05T05:18:12;11.40;99.90
14517;DHT22;7344;50.864;4.362;2023-01-05T05:20:40;11.40;99.90
14517;DHT22;7344;50.864;4.362;2023-01-05T05:23:06;11.40;99.90
14517;DHT22;7344;50.864;4.362;2023-01-05T05:25:32;11.30;99.90
14517;DHT22;7344;50.864;4.362;2023-01-05T05:27:58;11.30;99.90
14517;DHT22;7344;50.864;4.362;2023-01-05T05:30:23;11.30;99.90
14517;DHT22;7344;50.864;4.362;2023-01-05T05:32:49;11.30;99.90
14517;DHT22;7344;50.864;4.362;2023-01-05T05:35:14;11.30;99.90
14517;DHT22;7344;50.864;4.362;2023-01-05T05:37:40;11.30;99.90
14517;DHT22;7344;50.864;4.362;2023-01-05T05:40:06;11.30;99.90
14517;DHT22;7344;50.864;4.362;2023-01-05T05:42:32;11.20;99.90
14517;DHT22;7344;50.864;4.362;2023-01-05T05:44:57;11.30;99.90
14517;DHT22;7344;50.864;4.362;2023-01-05T05:47:23;11.30;99.90
14517;DHT22;7344;50.864;4.362;2023-01-05T05:49:48;11.30;99.90
14517;DHT22;7344;50.864;4.362;2023-01-05T05:52:14;11.30;99.90
14517;DHT22;7344;50.864;4.362;2023-01-05T05:54:40;11.30;99.90
14517;DHT22;7344;50.864;4.362;2023-01-05T05:57:05;11.30;99.90
14517;DHT22;7344;50.864;4.362;2023-01-05T05:59:31;11.30;99.90
14517;DHT22;7344;50.864;4.362;2023-01-05T06:01:56;11.40;99.90
14517;DHT22;7344;50.864;4.362;2023-01-05T06:04:22;11.50;99.90
14517;DHT22;7344;50.864;4.362;2023-01-05T06:06:47;11.50;99.90
14517;DHT22;7344;50.864;4.362;2023-01-05T06:09:13;11.50;99.90
14517;DHT22;7344;50.864;4.362;2023-01-05T06:11:39;11.50;99.90
14517;DHT22;7344;50.864;4.362;2023-01-05T06:14:04;11.60;99.90
14517;DHT22;7344;50.864;4.362;2023-01-05T06:16:30;11.60;99.90
14517;DHT22;7344;50.864;4.362;2023-01-05T06:18:56;11.60;99.90
14517;DHT22;7344;50.864;4.362;2023-01-05T06:21:22;11.50;99.90
14517;DHT22;7344;50.864;4.362;2023-01-05T06:23:47;11.50;99.90
14517;DHT22;7344;50.864;4.362;2023-01-05T06:26:13;11.50;99.90
14517;DHT22;7344;50.864;4.362;2023-01-05T06:28:38;11.50;99.90
14517;DHT22;7344;50.864;4.362;2023-01-05T06:31:04;11.50;99.90
14517;DHT22;7344;50.864;4.362;2023-01-05T06:33:30;11.50;99.90
14517;DHT22;7344;50.864;4.362;2023-01-05T06:35:55;11.40;99.90
14517;DHT22;7344;50.864;4.362;2023-01-05T06:38:23;11.50;99.90
14517;DHT22;7344;50.864;4.362;2023-01-05T06:40:50;11.40;99.90
14517;DHT22;7344;50.864;4.362;2023-01-05T06:43:16;11.30;99.90
14517;DHT22;7344;50.864;4.362;2023-01-05T06:45:41;11.30;99.90
14517;DHT22;7344;50.864;4.362;2023-01-05T06:48:07;11.30;99.90
14517;DHT22;7344;50.864;4.362;2023-01-05T06:50:33;11.30;99.90
14517;DHT22;7344;50.864;4.362;2023-01-05T06:52:59;11.40;99.90
14517;DHT22;7344;50.864;4.362;2023-01-05T06:55:25;11.40;99.90
14517;DHT22;7344;50.864;4.362;2023-01-05T06:57:50;11.40;99.90
14517;DHT22;7344;50.864;4.362;2023-01-05T07:00:16;11.40;99.90
14517;DHT22;7344;50.864;4.362;2023-01-05T07:02:42;11.30;99.90
14517;DHT22;7344;50.864;4.362;2023-01-05T07:05:08;11.40;99.90
14517;DHT22;7344;50.864;4.362;2023-01-05T07:07:34;11.40;99.90
14517;DHT22;7344;50.864;4.362;2023-01-05T07:10:00;11.40;99.90
14517;DHT22;7344;50.864;4.362;2023-01-05T07:12:26;11.40;99.90
14517;DHT22;7344;50.864;4.362;2023-01-05T07:14:52;11.40;99.90
14517;DHT22;7344;50.864;4.362;2023-01-05T07:17:18;11.40;99.90
14517;DHT22;7344;50.864;4.362;2023-01-05T07:19:43;11.30;99.90
14517;DHT22;7344;50.864;4.362;2023-01-05T07:22:09;11.30;99.90
14517;DHT22;7344;50.864;4.362;2023-01-05T07:24:35;11.30;99.90
14517;DHT22;7344;50.864;4.362;2023-01-05T07:27:00;11.30;99.90
14517;DHT22;7344;50.864;4.362;2023-01-05T07:29:26;11.30;99.90
14517;DHT22;7344;50.864;4.362;2023-01-05T07:31:52;11.30;99.90
14517;DHT22;7344;50.864;4.362;2023-01-05T07:34:19;11.30;99.90
14517;DHT22;7344;50.864;4.362;2023-01-05T07:36:45;11.30;99.90
14517;DHT22;7344;50.864;4.362;2023-01-05T07:39:10;11.20;99.90
14517;DHT22;7344;50.864;4.362;2023-01-05T07:41:36;11.20;99.90
14517;DHT22;7344;50.864;4.362;2023-01-05T07:44:02;11.00;99.90
14517;DHT22;7344;50.864;4.362;2023-01-05T07:46:27;10.80;99.90
14517;DHT22;7344;50.864;4.362;2023-01-05T07:48:53;10.70;99.90
14517;DHT22;7344;50.864;4.362;2023-01-05T07:51:18;10.60;99.90
14517;DHT22;7344;50.864;4.362;2023-01-05T07:53:44;10.60;99.90
14517;DHT22;7344;50.864;4.362;2023-01-05T07:56:10;10.70;99.90
14517;DHT22;7344;50.864;4.362;2023-01-05T07:58:36;10.60;99.90
14517;DHT22;7344;50.864;4.362;2023-01-05T08:01:06;10.80;99.90
14517;DHT22;7344;50.864;4.362;2023-01-05T08:03:32;10.80;99.90
14517;DHT22;7344;50.864;4.362;2023-01-05T08:06:02;10.80;99.90
14517;DHT22;7344;50.864;4.362;2023-01-05T08:08:29;10.90;99.90
14517;DHT22;7344;50.864;4.362;2023-01-05T08:10:55;10.90;99.90
14517;DHT22;7344;50.864;4.362;2023-01-05T08:13:20;10.90;99.90
14517;DHT22;7344;50.864;4.362;2023-01-05T08:16:05;11.00;99.90
14517;DHT22;7344;50.864;4.362;2023-01-05T08:18:30;11.10;99.90
14517;DHT22;7344;50.864;4.362;2023-01-05T08:20:58;11.10;99.90
14517;DHT22;7344;50.864;4.362;2023-01-05T08:23:26;11.10;99.90
14517;DHT22;7344;50.864;4.362;2023-01-05T08:25:53;11.10;99.90
14517;DHT22;7344;50.864;4.362;2023-01-05T08:28:19;11.10;99.90
14517;DHT22;7344;50.864;4.362;2023-01-05T08:30:45;11.10;99.90
14517;DHT22;7344;50.864;4.362;2023-01-05T08:33:12;11.10;99.90
14517;DHT22;7344;50.864;4.362;2023-01-05T08:35:42;11.20;99.90
14517;DHT22;7344;50.864;4.362;2023-01-05T08:38:07;11.40;99.90
14517;DHT22;7344;50.864;4.362;2023-01-05T08:40:34;11.50;99.90
14517;DHT22;7344;50.864;4.362;2023-01-05T08:43:00;11.50;99.90
14517;DHT22;7344;50.864;4.362;2023-01-05T08:45:28;11.60;99.90
14517;DHT22;7344;50.864;4.362;2023-01-05T08:47:54;11.70;99.90
14517;DHT22;7344;50.864;4.362;2023-01-05T08:50:19;11.70;99.90
14517;DHT22;7344;50.864;4.362;2023-01-05T08:52:45;11.70;99.90
14517;DHT22;7344;50.864;4.362;2023-01-05T08:55:11;11.80;99.90
14517;DHT22;7344;50.864;4.362;2023-01-05T08:57:37;11.80;99.90
14517;DHT22;7344;50.864;4.362;2023-01-05T09:00:03;11.90;99.90
14517;DHT22;7344;50.864;4.362;2023-01-05T09:02:29;11.90;99.90
14517;DHT22;7344;50.864;4.362;2023-01-05T09:04:55;11.90;99.90
14517;DHT22;7344;50.864;4.362;2023-01-05T09:07:20;12.00;99.90
14517;DHT22;7344;50.864;4.362;2023-01-05T09:09:46;12.00;99.90
14517;DHT22;7344;50.864;4.362;2023-01-05T09:12:12;12.00;99.90
14517;DHT22;7344;50.864;4.362;2023-01-05T09:14:38;12.00;99.90
14517;DHT22;7344;50.864;4.362;2023-01-05T09:17:03;12.10;99.90
14517;DHT22;7344;50.864;4.362;2023-01-05T09:19:29;12.10;99.90
14517;DHT22;7344;50.864;4.362;2023-01-05T09:21:54;12.10;99.90
14517;DHT22;7344;50.864;4.362;2023-01-05T09:24:20;12.30;99.90
14517;DHT22;7344;50.864;4.362;2023-01-05T09:26:46;12.40;99.90
14517;DHT22;7344;50.864;4.362;2023-01-05T09:29:12;12.40;99.90
14517;DHT22;7344;50.864;4.362;2023-01-05T09:31:41;12.30;99.90
14517;DHT22;7344;50.864;4.362;2023-01-05T09:34:07;12.40;99.90
14517;DHT22;7344;50.864;4.362;2023-01-05T09:36:33;12.40;99.90
14517;DHT22;7344;50.864;4.362;2023-01-05T09:38:59;12.50;99.90
14517;DHT22;7344;50.864;4.362;2023-01-05T09:44:34;12.80;99.90
14517;DHT22;7344;50.864;4.362;2023-01-05T09:47:09;13.10;99.90
14517;DHT22;7344;50.864;4.362;2023-01-05T09:49:38;13.30;99.90
14517;DHT22;7344;50.864;4.362;2023-01-05T09:52:07;13.50;99.90
14517;DHT22;7344;50.864;4.362;2023-01-05T09:54:39;13.60;99.90
14517;DHT22;7344;50.864;4.362;2023-01-05T09:57:27;13.90;99.90
14517;DHT22;7344;50.864;4.362;2023-01-05T09:59:58;13.90;99.90
14517;DHT22;7344;50.864;4.362;2023-01-05T10:02:40;13.70;99.90
14517;DHT22;7344;50.864;4.362;2023-01-05T10:05:11;13.70;99.90
14517;DHT22;7344;50.864;4.362;2023-01-05T10:08:02;13.80;99.90
14517;DHT22;7344;50.864;4.362;2023-01-05T10:10:45;14.00;99.90
14517;DHT22;7344;50.864;4.362;2023-01-05T10:13:22;14.20;99.90
14517;DHT22;7344;50.864;4.362;2023-01-05T10:15:49;14.00;99.90
14517;DHT22;7344;50.864;4.362;2023-01-05T10:18:22;14.30;99.90
14517;DHT22;7344;50.864;4.362;2023-01-05T10:31:21;14.40;99.90
14517;DHT22;7344;50.864;4.362;2023-01-05T10:33:52;14.30;99.90
14517;DHT22;7344;50.864;4.362;2023-01-05T10:42:34;14.80;99.90
14517;DHT22;7344;50.864;4.362;2023-01-05T10:45:02;14.90;99.90
14517;DHT22;7344;50.864;4.362;2023-01-05T10:47:31;14.80;99.90
14517;DHT22;7344;50.864;4.362;2023-01-05T10:50:00;14.40;99.90
14517;DHT22;7344;50.864;4.362;2023-01-05T10:52:26;14.30;99.90
14517;DHT22;7344;50.864;4.362;2023-01-05T10:54:59;14.20;99.90
14517;DHT22;7344;50.864;4.362;2023-01-05T11:00:18;13.90;99.90
14517;DHT22;7344;50.864;4.362;2023-01-05T11:03:01;13.90;99.90
14517;DHT22;7344;50.864;4.362;2023-01-05T11:05:36;14.10;99.90
14517;DHT22;7344;50.864;4.362;2023-01-05T11:08:13;14.10;99.90
14517;DHT22;7344;50.864;4.362;2023-01-05T11:10:46;14.20;99.90
14517;DHT22;7344;50.864;4.362;2023-01-05T11:15:44;14.00;99.90
14517;DHT22;7344;50.864;4.362;2023-01-05T11:21:12;13.90;99.90
14517;DHT22;7344;50.864;4.362;2023-01-05T11:23:44;13.90;99.90
14517;DHT22;7344;50.864;4.362;2023-01-05T11:26:31;14.00;99.90
14517;DHT22;7344;50.864;4.362;2023-01-05T11:31:51;13.90;99.90
14517;DHT22;7344;50.864;4.362;2023-01-05T11:36:56;14.00;99.90
14517;DHT22;7344;50.864;4.362;2023-01-05T11:42:33;14.10;99.90
14517;DHT22;7344;50.864;4.362;2023-01-05T11:45:03;13.80;99.90
14517;DHT22;7344;50.864;4.362;2023-01-05T11:47:44;13.80;99.90
14517;DHT22;7344;50.864;4.362;2023-01-05T11:50:47;14.00;99.90
14517;DHT22;7344;50.864;4.362;2023-01-05T11:56:00;14.20;99.90
14517;DHT22;7344;50.864;4.362;2023-01-05T11:58:32;14.20;99.90
14517;DHT22;7344;50.864;4.362;2023-01-05T12:04:00;14.20;99.90
14517;DHT22;7344;50.864;4.362;2023-01-05T12:09:38;14.20;99.90
14517;DHT22;7344;50.864;4.362;2023-01-05T12:17:17;13.90;99.90
14517;DHT22;7344;50.864;4.362;2023-01-05T12:20:14;14.00;99.90
14517;DHT22;7344;50.864;4.362;2023-01-05T12:25:39;14.30;99.90
14517;DHT22;7344;50.864;4.362;2023-01-05T12:28:40;14.40;99.90
14517;DHT22;7344;50.864;4.362;2023-01-05T12:31:26;14.40;99.90
14517;DHT22;7344;50.864;4.362;2023-01-05T12:42:24;14.00;99.90
14517;DHT22;7344;50.864;4.362;2023-01-05T12:56:14;13.70;99.90
14517;DHT22;7344;50.864;4.362;2023-01-05T12:59:06;13.80;99.90
14517;DHT22;7344;50.864;4.362;2023-01-05T13:01:38;13.70;99.90
14517;DHT22;7344;50.864;4.362;2023-01-05T13:04:26;13.70;99.90
14517;DHT22;7344;50.864;4.362;2023-01-05T13:06:58;13.60;99.90
14517;DHT22;7344;50.864;4.362;2023-01-05T13:09:28;13.60;99.90
14517;DHT22;7344;50.864;4.362;2023-01-05T13:12:00;13.70;99.90
14517;DHT22;7344;50.864;4.362;2023-01-05T13:14:32;13.60;99.90
14517;DHT22;7344;50.864;4.362;2023-01-05T13:17:24;13.50;99.90
14517;DHT22;7344;50.864;4.362;2023-01-05T13:20:11;13.30;99.90
14517;DHT22;7344;50.864;4.362;2023-01-05T13:22:41;13.20;99.90
14517;DHT22;7344;50.864;4.362;2023-01-05T13:25:21;13.20;99.90
14517;DHT22;7344;50.864;4.362;2023-01-05T13:27:48;13.20;99.90
14517;DHT22;7344;50.864;4.362;2023-01-05T13:30:30;13.00;99.90
14517;DHT22;7344;50.864;4.362;2023-01-05T13:33:24;13.00;99.90
14517;DHT22;7344;50.864;4.362;2023-01-05T13:50:36;12.60;99.90
14517;DHT22;7344;50.864;4.362;2023-01-05T13:53:17;12.60;99.90
14517;DHT22;7344;50.864;4.362;2023-01-05T13:55:55;12.40;99.90
14517;DHT22;7344;50.864;4.362;2023-01-05T13:58:37;12.40;99.90
14517;DHT22;7344;50.864;4.362;2023-01-05T14:01:07;12.50;99.90
14517;DHT22;7344;50.864;4.362;2023-01-05T14:03:39;12.50;99.90
14517;DHT22;7344;50.864;4.362;2023-01-05T14:06:14;12.50;99.90
14517;DHT22;7344;50.864;4.362;2023-01-05T14:08:46;12.50;99.90
14517;DHT22;7344;50.864;4.362;2023-01-05T14:11:22;12.60;99.90
14517;DHT22;7344;50.864;4.362;2023-01-05T14:13:58;12.60;99.90
14517;DHT22;7344;50.864;4.362;2023-01-05T14:24:47;12.40;99.90
14517;DHT22;7344;50.864;4.362;2023-01-05T14:27:23;12.50;99.90
14517;DHT22;7344;50.864;4.362;2023-01-05T14:37:40;12.40;99.90
14517;DHT22;7344;50.864;4.362;2023-01-05T14:43:01;12.60;99.90
14517;DHT22;7344;50.864;4.362;2023-01-05T14:45:30;12.60;99.90
14517;DHT22;7344;50.864;4.362;2023-01-05T14:47:58;12.70;99.90
14517;DHT22;7344;50.864;4.362;2023-01-05T14:50:31;12.70;99.90
14517;DHT22;7344;50.864;4.362;2023-01-05T14:53:12;12.80;99.90
14517;DHT22;7344;50.864;4.362;2023-01-05T14:58:13;12.80;99.90
14517;DHT22;7344;50.864;4.362;2023-01-05T15:00:44;12.80;99.90
14517;DHT22;7344;50.864;4.362;2023-01-05T15:03:35;12.80;99.90
14517;DHT22;7344;50.864;4.362;2023-01-05T15:06:10;12.90;99.90
14517;DHT22;7344;50.864;4.362;2023-01-05T15:23:16;12.90;99.90
14517;DHT22;7344;50.864;4.362;2023-01-05T15:28:49;12.90;99.90
14517;DHT22;7344;50.864;4.362;2023-01-05T15:36:37;13.00;99.90
14517;DHT22;7344;50.864;4.362;2023-01-05T15:41:49;13.00;99.90
14517;DHT22;7344;50.864;4.362;2023-01-05T15:44:16;13.00;99.90
14517;DHT22;7344;50.864;4.362;2023-01-05T15:46:44;13.10;99.90
14517;DHT22;7344;50.864;4.362;2023-01-05T15:49:24;13.00;99.90
14517;DHT22;7344;50.864;4.362;2023-01-05T15:51:54;13.10;99.90
14517;DHT22;7344;50.864;4.362;2023-01-05T15:54:28;13.00;99.90
14517;DHT22;7344;50.864;4.362;2023-01-05T15:56:55;13.10;99.90
14517;DHT22;7344;50.864;4.362;2023-01-05T15:59:24;13.10;99.90
14517;DHT22;7344;50.864;4.362;2023-01-05T16:01:50;13.00;99.90
14517;DHT22;7344;50.864;4.362;2023-01-05T16:04:16;13.00;99.90
14517;DHT22;7344;50.864;4.362;2023-01-05T16:06:47;13.00;99.90
14517;DHT22;7344;50.864;4.362;2023-01-05T16:09:33;13.00;99.90
14517;DHT22;7344;50.864;4.362;2023-01-05T16:12:10;13.10;99.90
14517;DHT22;7344;50.864;4.362;2023-01-05T16:15:10;13.10;99.90
14517;DHT22;7344;50.864;4.362;2023-01-05T16:17:36;13.10;99.90
14517;DHT22;7344;50.864;4.362;2023-01-05T16:20:08;13.00;99.90
14517;DHT22;7344;50.864;4.362;2023-01-05T16:25:19;12.90;99.90
14517;DHT22;7344;50.864;4.362;2023-01-05T16:27:49;12.70;99.90
14517;DHT22;7344;50.864;4.362;2023-01-05T16:33:04;12.80;99.90
14517;DHT22;7344;50.864;4.362;2023-01-05T16:35:48;12.80;99.90
14517;DHT22;7344;50.864;4.362;2023-01-05T16:38:26;12.90;99.90
14517;DHT22;7344;50.864;4.362;2023-01-05T16:40:57;12.90;99.90
14517;DHT22;7344;50.864;4.362;2023-01-05T16:45:49;12.90;99.90
14517;DHT22;7344;50.864;4.362;2023-01-05T16:51:13;12.80;99.90
14517;DHT22;7344;50.864;4.362;2023-01-05T16:53:47;12.90;99.90
14517;DHT22;7344;50.864;4.362;2023-01-05T16:56:42;12.80;99.90
14517;DHT22;7344;50.864;4.362;2023-01-05T17:02:14;12.80;99.90
14517;DHT22;7344;50.864;4.362;2023-01-05T17:04:48;12.90;99.90
14517;DHT22;7344;50.864;4.362;2023-01-05T17:07:14;12.90;99.90
14517;DHT22;7344;50.864;4.362;2023-01-05T17:09:40;12.90;99.90
14517;DHT22;7344;50.864;4.362;2023-01-05T17:12:07;12.90;99.90
14517;DHT22;7344;50.864;4.362;2023-01-05T17:14:34;12.90;99.90
14517;DHT22;7344;50.864;4.362;2023-01-05T17:16:59;12.90;99.90
14517;DHT22;7344;50.864;4.362;2023-01-05T17:19:25;12.90;99.90
14517;DHT22;7344;50.864;4.362;2023-01-05T17:21:55;12.90;99.90
14517;DHT22;7344;50.864;4.362;2023-01-05T17:24:21;12.90;99.90
14517;DHT22;7344;50.864;4.362;2023-01-05T17:26:47;12.80;99.90
14517;DHT22;7344;50.864;4.362;2023-01-05T17:29:25;12.80;99.90
14517;DHT22;7344;50.864;4.362;2023-01-05T17:31:51;12.70;99.90
14517;DHT22;7344;50.864;4.362;2023-01-05T17:34:17;12.80;99.90
14517;DHT22;7344;50.864;4.362;2023-01-05T17:36:44;12.70;99.90
14517;DHT22;7344;50.864;4.362;2023-01-05T17:39:17;12.60;99.90
14517;DHT22;7344;50.864;4.362;2023-01-05T17:41:43;12.60;99.90
14517;DHT22;7344;50.864;4.362;2023-01-05T17:44:09;12.70;99.90
14517;DHT22;7344;50.864;4.362;2023-01-05T17:46:37;12.70;99.90
14517;DHT22;7344;50.864;4.362;2023-01-05T17:49:12;12.60;99.90
14517;DHT22;7344;50.864;4.362;2023-01-05T17:51:37;12.60;99.90
14517;DHT22;7344;50.864;4.362;2023-01-05T17:54:03;12.60;99.90
14517;DHT22;7344;50.864;4.362;2023-01-05T17:56:29;12.50;99.90
14517;DHT22;7344;50.864;4.362;2023-01-05T17:58:54;12.60;99.90
14517;DHT22;7344;50.864;4.362;2023-01-05T18:01:20;12.70;99.90
14517;DHT22;7344;50.864;4.362;2023-01-05T18:03:46;12.60;99.90
14517;DHT22;7344;50.864;4.362;2023-01-05T18:06:12;12.70;99.90
14517;DHT22;7344;50.864;4.362;2023-01-05T18:08:37;12.70;99.90
14517;DHT22;7344;50.864;4.362;2023-01-05T18:11:04;12.70;99.90
14517;DHT22;7344;50.864;4.362;2023-01-05T18:13:31;12.70;99.90
14517;DHT22;7344;50.864;4.362;2023-01-05T18:15:57;12.70;99.90
14517;DHT22;7344;50.864;4.362;2023-01-05T18:18:23;12.70;99.90
14517;DHT22;7344;50.864;4.362;2023-01-05T18:20:49;12.70;99.90
14517;DHT22;7344;50.864;4.362;2023-01-05T18:23:16;12.70;99.90
14517;DHT22;7344;50.864;4.362;2023-01-05T18:25:43;12.60;99.90
14517;DHT22;7344;50.864;4.362;2023-01-05T18:28:08;12.70;99.90
14517;DHT22;7344;50.864;4.362;2023-01-05T18:30:34;12.70;99.90
14517;DHT22;7344;50.864;4.362;2023-01-05T18:33:00;12.70;99.90
14517;DHT22;7344;50.864;4.362;2023-01-05T18:35:26;12.70;99.90
14517;DHT22;7344;50.864;4.362;2023-01-05T18:37:52;12.60;99.90
14517;DHT22;7344;50.864;4.362;2023-01-05T18:40:19;12.70;99.90
14517;DHT22;7344;50.864;4.362;2023-01-05T18:42:45;12.70;99.90
14517;DHT22;7344;50.864;4.362;2023-01-05T18:45:11;12.70;99.90
14517;DHT22;7344;50.864;4.362;2023-01-05T18:47:36;12.60;99.90
14517;DHT22;7344;50.864;4.362;2023-01-05T18:50:02;12.50;99.90
14517;DHT22;7344;50.864;4.362;2023-01-05T18:52:31;12.50;99.90
14517;DHT22;7344;50.864;4.362;2023-01-05T18:54:57;12.40;99.90